Time;durP1;ratioP1;P1;durP2;ratioP2;P2;SDS_P1;SDS_P2;PMS_P1;PMS_P2;Temp;Humidity;BMP_temperature;BMP_pressure;BME280_temperature;BME280_humidity;BME280_pressure;Samples;Min_cycle;Max_cycle;Signal;HPM_P1;HPM_P2
2021/03/10 00:01:46;;;;;;;19.27;8.83;;;;;;;-4.93;56.32;100362.66;128252;1108;23873;-69
2021/03/10 00:04:14;;;;;;;19.37;9.10;;;;;;;-4.86;54.48;100362.92;128279;1107;23038;-69
2021/03/10 00:06:58;;;;;;;21.43;9.13;;;;;;;-4.82;55.06;100370.50;128202;1108;22891;-69
2021/03/10 00:09:25;;;;;;;23.00;9.40;;;;;;;-4.78;53.90;100360.43;128354;1108;22834;-69
2021/03/10 00:11:53;;;;;;;24.27;8.67;;;;;;;-4.74;54.35;100359.15;128218;1108;22994;-66
2021/03/10 00:14:20;;;;;;;22.80;10.03;;;;;;;-4.70;54.88;100364.06;128312;1108;23693;-68
2021/03/10 00:16:47;;;;;;;19.77;9.07;;;;;;;-4.67;54.75;100363.78;128209;1107;22828;-68
2021/03/10 00:19:15;;;;;;;17.83;8.67;;;;;;;-4.66;54.85;100360.15;128272;1107;22911;-67
2021/03/10 00:21:43;;;;;;;17.27;8.53;;;;;;;-4.67;55.04;100354.97;128269;1107;22900;-67
2021/03/10 00:24:10;;;;;;;21.73;8.83;;;;;;;-4.69;54.78;100360.42;128334;1107;23543;-67
2021/03/10 00:26:38;;;;;;;19.00;8.43;;;;;;;-4.69;55.26;100362.24;127037;1108;23061;-68
2021/03/10 00:29:05;;;;;;;20.43;8.43;;;;;;;-4.74;55.98;100357.33;124589;1109;23174;-66
2021/03/10 00:31:36;;;;;;;17.57;7.97;;;;;;;-4.79;55.46;100359.59;128190;1107;22836;-67
2021/03/10 00:34:04;;;;;;;28.17;10.10;;;;;;;-4.89;56.39;100350.75;128368;1107;22830;-68
2021/03/10 00:36:32;;;;;;;77.47;19.80;;;;;;;-4.97;55.23;100352.44;128194;1107;22996;-68
2021/03/10 00:38:59;;;;;;;100.37;26.40;;;;;;;-5.05;55.08;100351.29;128191;1109;23991;-67
2021/03/10 00:41:27;;;;;;;83.40;19.57;;;;;;;-5.08;55.28;100348.09;128238;1108;22902;-68
2021/03/10 00:43:54;;;;;;;83.10;21.63;;;;;;;-5.13;56.37;100347.66;128376;1108;22840;-68
2021/03/10 00:46:21;;;;;;;77.10;20.20;;;;;;;-5.22;55.44;100354.64;128339;1108;22829;-66
2021/03/10 00:48:49;;;;;;;73.07;19.47;;;;;;;-5.30;57.48;100346.50;128241;1108;23748;-66
2021/03/10 00:51:16;;;;;;;71.13;18.97;;;;;;;-5.36;57.66;100355.03;128360;1107;22870;-66
2021/03/10 00:53:44;;;;;;;85.57;22.20;;;;;;;-5.42;56.83;100352.91;128220;1109;22894;-67
2021/03/10 00:56:11;;;;;;;69.80;22.23;;;;;;;-5.50;58.13;100358.91;128271;1108;23958;-66
2021/03/10 00:58:39;;;;;;;67.33;20.77;;;;;;;-5.57;57.31;100354.25;128252;1108;22874;-66
2021/03/10 01:01:06;;;;;;;78.70;20.53;;;;;;;-5.64;58.06;100353.96;128219;1107;22888;-66
2021/03/10 01:03:34;;;;;;;58.55;16.05;;;;;;;-5.71;58.70;100353.64;124902;1108;23522;-66
2021/03/10 01:06:01;;;;;;;45.03;14.17;;;;;;;-5.78;57.77;100349.86;124592;1108;23255;-65
2021/03/10 01:08:30;;;;;;;32.70;12.87;;;;;;;-5.85;58.06;100347.85;128180;1107;22982;-67
2021/03/10 01:10:57;;;;;;;42.60;13.93;;;;;;;-5.91;59.31;100348.41;128368;1107;22804;-66
2021/03/10 01:13:25;;;;;;;30.43;12.63;;;;;;;-5.96;58.40;100342.67;128234;1107;22969;-66
2021/03/10 01:15:53;;;;;;;36.17;12.50;;;;;;;-5.99;58.95;100343.77;128327;1108;23800;-66
2021/03/10 01:18:20;;;;;;;32.63;11.83;;;;;;;-6.03;59.86;100347.66;128222;1108;22823;-66
2021/03/10 01:20:48;;;;;;;33.33;13.80;;;;;;;-6.06;59.25;100348.75;128238;1108;22842;-67
2021/03/10 01:23:16;;;;;;;29.17;12.73;;;;;;;-6.08;59.53;100352.53;128085;1107;27290;-66
2021/03/10 01:25:44;;;;;;;38.80;13.67;;;;;;;-6.12;59.52;100345.80;128272;1107;22898;-67
2021/03/10 01:28:12;;;;;;;39.50;14.53;;;;;;;-6.17;59.90;100348.84;128186;1108;22881;-67
2021/03/10 01:30:39;;;;;;;32.60;13.50;;;;;;;-6.19;59.33;100355.23;128371;1108;22816;-67
2021/03/10 01:33:06;;;;;;;34.10;15.23;;;;;;;-6.22;59.38;100352.87;128305;1108;22978;-68
2021/03/10 01:35:34;;;;;;;39.87;15.27;;;;;;;-6.24;59.62;100350.34;128176;1107;22898;-68
2021/03/10 01:38:01;;;;;;;38.80;16.80;;;;;;;-6.27;59.33;100349.77;128317;1107;23357;-69
2021/03/10 01:40:29;;;;;;;50.53;19.37;;;;;;;-6.29;59.96;100349.05;128202;1109;22964;-68
2021/03/10 01:43:01;;;;;;;49.23;17.83;;;;;;;-6.30;59.51;100353.50;128354;1107;23570;-68
2021/03/10 01:45:29;;;;;;;56.27;19.63;;;;;;;-6.31;59.67;100351.82;128247;1107;22897;-69
2021/03/10 01:47:56;;;;;;;59.20;22.07;;;;;;;-6.31;60.29;100350.98;128310;1107;23004;-69
2021/03/10 01:50:24;;;;;;;55.33;22.27;;;;;;;-6.34;60.52;100346.77;128180;1108;22911;-69
2021/03/10 01:52:52;;;;;;;56.07;22.17;;;;;;;-6.37;60.73;100349.70;128309;1108;22849;-69
2021/03/10 01:55:20;;;;;;;56.20;22.03;;;;;;;-6.37;60.65;100354.17;128216;1108;22835;-62
2021/03/10 01:57:48;;;;;;;62.87;21.43;;;;;;;-6.37;60.64;100347.06;128383;1108;22955;-63
2021/03/10 02:00:17;;;;;;;62.07;21.30;;;;;;;-6.38;61.01;100350.67;128242;1107;22876;-62
2021/03/10 02:02:44;;;;;;;53.73;21.27;;;;;;;-6.39;60.39;100359.59;128277;1108;22845;-63
2021/03/10 02:05:14;;;;;;;45.90;20.10;;;;;;;-6.43;60.45;100353.70;128256;1107;22933;-63
2021/03/10 02:07:51;;;;;;;47.30;19.40;;;;;;;-6.45;60.79;100352.98;128314;1109;22830;-62
2021/03/10 02:10:25;;;;;;;36.63;17.50;;;;;;;-6.44;60.41;100361.78;128212;1108;22988;-62
2021/03/10 02:13:10;;;;;;;39.40;17.97;;;;;;;-6.46;60.85;100361.06;128282;1107;23967;-62
2021/03/10 02:15:45;;;;;;;21.27;10.30;;;;;;;-6.46;60.65;100363.72;128122;1108;23071;-62
2021/03/10 02:18:17;;;;;;;35.53;14.30;;;;;;;-6.45;60.57;100362.75;128326;1107;23008;-62
2021/03/10 02:20:46;;;;;;;32.97;13.70;;;;;;;-6.45;61.29;100360.94;128225;1108;22846;-62
2021/03/10 02:23:35;;;;;;;29.60;13.07;;;;;;;-6.43;61.39;100356.36;128332;1108;22987;-62
2021/03/10 02:26:22;;;;;;;31.40;13.60;;;;;;;-6.44;60.44;100353.83;128161;1107;22879;-62
2021/03/10 02:28:50;;;;;;;25.68;11.63;;;;;;;-6.46;60.68;100348.66;128326;1109;23030;-62
2021/03/10 02:31:17;;;;;;;26.80;11.27;;;;;;;-6.45;60.72;100360.10;128201;1107;23058;-62
2021/03/10 02:33:45;;;;;;;24.07;11.67;;;;;;;-6.44;60.53;100353.83;128325;1107;22888;-62
2021/03/10 02:36:13;;;;;;;29.73;11.63;;;;;;;-6.39;61.02;100350.80;128231;1108;22817;-62
2021/03/10 02:38:48;;;;;;;28.77;11.13;;;;;;;-6.37;60.65;100349.70;127308;1108;27184;-61
2021/03/10 02:41:16;;;;;;;24.95;11.30;;;;;;;-6.34;61.10;100351.23;124522;1109;23066;-62
2021/03/10 02:43:45;;;;;;;26.17;9.90;;;;;;;-6.34;60.86;100348.58;128340;1109;22875;-63
2021/03/10 02:46:13;;;;;;;18.67;8.87;;;;;;;-6.33;61.00;100345.80;128138;1108;23081;-63
2021/03/10 02:48:40;;;;;;;25.03;9.57;;;;;;;-6.31;60.57;100343.87;128315;1108;23611;-63
2021/03/10 02:51:08;;;;;;;19.27;8.40;;;;;;;-6.29;60.21;100355.19;128292;1108;22993;-63
2021/03/10 02:53:39;;;;;;;19.20;8.33;;;;;;;-6.27;60.33;100347.95;128235;1107;22810;-63
2021/03/10 02:56:09;;;;;;;16.87;7.30;;;;;;;-6.26;60.43;100346.98;128332;1108;22921;-64
2021/03/10 02:58:38;;;;;;;19.53;8.83;;;;;;;-6.26;60.48;100349.63;128230;1108;23721;-65
2021/03/10 03:01:07;;;;;;;21.87;10.23;;;;;;;-6.23;60.07;100351.19;128345;1107;22908;-65
2021/03/10 03:03:35;;;;;;;18.20;9.07;;;;;;;-6.20;59.83;100354.39;128218;1109;22845;-64
2021/03/10 03:06:02;;;;;;;14.37;6.60;;;;;;;-6.12;60.12;100353.76;128275;1107;22822;-64
2021/03/10 03:08:30;;;;;;;13.30;6.00;;;;;;;-6.04;60.07;100358.39;128202;1107;23016;-64
2021/03/10 03:10:57;;;;;;;15.60;6.73;;;;;;;-5.98;60.46;100353.42;128305;1108;22867;-64
2021/03/10 03:13:25;;;;;;;16.80;6.87;;;;;;;-5.90;59.36;100355.39;128129;1107;25784;-64
2021/03/10 03:15:54;;;;;;;18.40;8.43;;;;;;;-5.86;60.18;100354.12;128345;1108;22894;-64
2021/03/10 03:18:23;;;;;;;15.97;8.93;;;;;;;-5.77;59.32;100356.81;128222;1107;22882;-64
2021/03/10 03:20:50;;;;;;;14.40;6.73;;;;;;;-5.69;59.32;100356.17;128337;1108;22873;-64
2021/03/10 03:23:18;;;;;;;17.87;6.37;;;;;;;-5.63;59.97;100358.30;128175;1107;22908;-64
2021/03/10 03:25:46;;;;;;;17.37;7.77;;;;;;;-5.59;58.87;100354.38;128326;1108;22963;-62
2021/03/10 03:28:15;;;;;;;18.13;7.47;;;;;;;-5.56;59.44;100354.12;128214;1108;22890;-62
2021/03/10 03:30:43;;;;;;;20.43;8.47;;;;;;;-5.54;58.38;100349.52;128355;1107;22889;-62
2021/03/10 03:33:16;;;;;;;18.15;7.20;;;;;;;-5.54;58.05;100357.48;128158;1107;22954;-62
2021/03/10 03:35:44;;;;;;;16.30;6.87;;;;;;;-5.54;58.87;100360.14;128299;1108;22969;-62
2021/03/10 03:38:11;;;;;;;16.30;6.27;;;;;;;-5.53;58.27;100363.63;128242;1108;22846;-62
2021/03/10 03:40:39;;;;;;;29.20;10.73;;;;;;;-5.54;59.12;100357.48;128259;1108;24829;-62
2021/03/10 03:43:07;;;;;;;14.87;6.07;;;;;;;-5.53;58.01;100360.98;128342;1108;22817;-62
2021/03/10 03:45:35;;;;;;;26.45;8.85;;;;;;;-5.52;58.65;100358.19;128206;1108;22838;-62
2021/03/10 03:48:03;;;;;;;12.30;6.20;;;;;;;-5.52;58.31;100358.19;128414;1107;22964;-62
2021/03/10 03:50:30;;;;;;;12.30;6.60;;;;;;;-5.50;58.23;100358.06;128172;1107;22888;-62
2021/03/10 03:52:58;;;;;;;11.77;5.87;;;;;;;-5.49;58.61;100359.74;128325;1107;22966;-61
2021/03/10 03:55:25;;;;;;;16.00;6.93;;;;;;;-5.49;57.94;100365.89;128186;1107;23642;-61
2021/03/10 03:57:52;;;;;;;13.83;6.10;;;;;;;-5.51;57.73;100362.53;128324;1108;22798;-61
2021/03/10 04:00:23;;;;;;;16.33;6.73;;;;;;;-5.54;59.18;100368.09;128292;1107;23005;-61
2021/03/10 04:02:51;;;;;;;12.27;6.33;;;;;;;-5.56;58.22;100361.23;128341;1108;22828;-61
2021/03/10 04:05:20;;;;;;;14.20;7.05;;;;;;;-5.60;58.51;100358.00;128216;1107;22898;-63
2021/03/10 04:08:07;;;;;;;12.20;6.40;;;;;;;-5.64;58.53;100361.92;128297;1108;22846;-63
2021/03/10 04:10:36;;;;;;;11.70;6.83;;;;;;;-5.66;57.75;100357.72;128228;1108;22827;-63
2021/03/10 04:13:04;;;;;;;10.97;6.57;;;;;;;-5.71;58.80;100361.61;128308;1108;23425;-63
2021/03/10 04:15:32;;;;;;;13.57;7.17;;;;;;;-5.74;59.06;100358.38;128224;1108;22837;-63
2021/03/10 04:18:01;;;;;;;13.83;7.87;;;;;;;-5.78;58.37;100354.33;128332;1108;22846;-63
2021/03/10 04:20:29;;;;;;;13.37;7.07;;;;;;;-5.82;58.95;100359.05;128183;1107;22851;-63
2021/03/10 04:22:56;;;;;;;13.27;7.40;;;;;;;-5.88;59.44;100356.91;128095;1108;23257;-63
2021/03/10 04:25:25;;;;;;;12.73;6.70;;;;;;;-5.91;59.37;100361.67;128214;1108;22843;-63
2021/03/10 04:27:52;;;;;;;12.83;7.17;;;;;;;-5.96;58.93;100356.78;128312;1108;22821;-63
2021/03/10 04:30:22;;;;;;;13.93;7.83;;;;;;;-6.00;59.58;100370.43;128202;1107;23424;-63
2021/03/10 04:32:49;;;;;;;14.83;7.57;;;;;;;-6.04;60.10;100371.66;128276;1109;22922;-63
2021/03/10 04:35:19;;;;;;;12.97;7.27;;;;;;;-6.06;59.61;100371.81;128365;1108;23518;-61
2021/03/10 04:37:46;;;;;;;14.33;7.80;;;;;;;-6.07;60.30;100373.63;128224;1107;22808;-61
2021/03/10 04:40:14;;;;;;;13.70;8.17;;;;;;;-6.08;59.94;100369.29;128234;1108;23038;-61
2021/03/10 04:42:42;;;;;;;16.27;7.83;;;;;;;-6.08;59.73;100365.80;128281;1107;22970;-61
2021/03/10 04:45:12;;;;;;;16.43;8.77;;;;;;;-6.07;60.15;100370.97;128260;1107;24031;-61
2021/03/10 04:47:43;;;;;;;46.87;19.17;;;;;;;-6.04;61.37;100372.50;128207;1107;22877;-61
2021/03/10 04:50:12;;;;;;;38.30;16.63;;;;;;;-5.98;60.96;100371.14;127269;1109;23097;-61
2021/03/10 04:52:40;;;;;;;33.90;15.30;;;;;;;-5.92;61.32;100374.12;128211;1107;22857;-61
2021/03/10 04:55:09;;;;;;;26.90;11.37;;;;;;;-5.86;61.46;100375.36;128338;1108;22880;-61
2021/03/10 04:57:37;;;;;;;24.70;10.73;;;;;;;-5.77;62.56;100386.01;128226;1108;23621;-61
2021/03/10 05:00:07;;;;;;;19.10;8.77;;;;;;;-5.72;62.15;100375.84;128291;1108;22931;-62
2021/03/10 05:02:36;;;;;;;17.13;9.87;;;;;;;-5.65;62.38;100378.83;128205;1108;22852;-62
2021/03/10 05:05:12;;;;;;;15.23;7.57;;;;;;;-5.57;62.22;100389.60;128268;1107;22939;-62
2021/03/10 05:07:44;;;;;;;18.10;8.17;;;;;;;-5.50;62.73;100380.14;128255;1108;22992;-64
2021/03/10 05:10:12;;;;;;;19.00;8.17;;;;;;;-5.43;62.14;100383.08;128311;1107;22985;-64
2021/03/10 05:12:40;;;;;;;14.43;8.83;;;;;;;-5.37;62.61;100388.70;128192;1108;22864;-64
2021/03/10 05:15:08;;;;;;;14.60;6.97;;;;;;;-5.27;62.10;100394.04;128326;1107;23017;-62
2021/03/10 05:17:35;;;;;;;13.07;6.93;;;;;;;-5.20;62.82;100392.53;128191;1107;23941;-63
2021/03/10 05:20:07;;;;;;;13.13;6.33;;;;;;;-5.10;61.40;100393.39;128358;1107;22889;-63
2021/03/10 05:22:34;;;;;;;14.87;7.80;;;;;;;-5.01;61.67;100395.22;128244;1107;23025;-63
2021/03/10 05:25:03;;;;;;;18.67;7.73;;;;;;;-4.93;61.58;100386.58;128275;1108;22825;-63
2021/03/10 05:27:31;;;;;;;20.57;8.40;;;;;;;-4.84;60.27;100388.39;128179;1109;22838;-63
2021/03/10 05:30:00;;;;;;;20.47;8.10;;;;;;;-4.76;60.54;100393.84;128378;1108;23269;-63
2021/03/10 05:32:27;;;;;;;17.30;7.90;;;;;;;-4.68;60.82;100396.66;128346;1108;22892;-64
2021/03/10 05:34:55;;;;;;;15.60;7.03;;;;;;;-4.60;60.47;100395.95;128225;1107;22857;-64
2021/03/10 05:37:22;;;;;;;18.70;8.20;;;;;;;-4.54;59.86;100400.73;128307;1107;22939;-64
2021/03/10 05:39:50;;;;;;;14.20;6.63;;;;;;;-4.46;59.98;100402.67;128158;1108;23095;-64
2021/03/10 05:42:18;;;;;;;13.67;6.27;;;;;;;-4.43;58.33;100403.23;128247;1108;23367;-64
2021/03/10 05:44:51;;;;;;;15.17;6.30;;;;;;;-4.38;59.64;100402.83;128208;1107;23444;-64
2021/03/10 05:47:19;;;;;;;14.77;6.03;;;;;;;-4.30;59.04;100403.79;128330;1108;22867;-64
2021/03/10 05:49:47;;;;;;;14.23;7.00;;;;;;;-4.20;59.03;100406.46;128132;1107;22921;-64
2021/03/10 05:52:16;;;;;;;12.43;6.10;;;;;;;-4.11;58.07;100407.42;128321;1107;23073;-64
2021/03/10 05:54:44;;;;;;;11.87;6.13;;;;;;;-4.04;57.12;100409.35;128227;1108;23456;-64
2021/03/10 05:57:11;;;;;;;13.57;6.67;;;;;;;-3.93;56.41;100413.70;128303;1108;22827;-64
2021/03/10 05:59:39;;;;;;;11.93;6.57;;;;;;;-3.88;57.28;100414.09;128233;1108;22975;-64
2021/03/10 06:02:06;;;;;;;18.10;6.90;;;;;;;-3.81;57.43;100417.03;128273;1107;22967;-63
2021/03/10 06:04:43;;;;;;;12.03;6.33;;;;;;;-3.75;57.23;100421.80;128153;1107;22919;-63
2021/03/10 06:07:23;;;;;;;21.37;7.23;;;;;;;-3.71;55.83;100413.34;128302;1107;22821;-62
2021/03/10 06:10:04;;;;;;;14.30;7.00;;;;;;;-3.63;55.85;100423.30;127198;1107;23049;-62
2021/03/10 06:12:42;;;;;;;;;;;;;;;-3.54;56.70;100426.89;128358;1107;22809;-63
2021/03/10 06:15:10;;;;;;;13.93;6.00;;;;;;;-3.47;55.26;100426.19;128187;1107;21361;-57
2021/03/10 06:17:44;;;;;;;11.13;5.53;;;;;;;-3.40;56.53;100437.92;128240;1107;23469;-60
2021/03/10 06:20:26;;;;;;;13.93;6.43;;;;;;;-3.34;55.00;100439.17;128188;1107;23689;-60
2021/03/10 06:22:53;;;;;;;17.70;6.27;;;;;;;-3.29;55.74;100437.73;128312;1108;22900;-62
2021/03/10 06:25:24;;;;;;;10.00;6.23;;;;;;;-3.19;55.00;100436.87;128200;1108;23125;-62
2021/03/10 06:27:57;;;;;;;17.70;7.03;;;;;;;-3.13;54.58;100436.26;128311;1107;22830;-65
2021/03/10 06:30:40;;;;;;;13.93;6.40;;;;;;;-3.07;54.99;100433.86;128183;1108;22870;-64
2021/03/10 06:33:08;;;;;;;12.80;5.33;;;;;;;-3.03;54.70;100434.41;128342;1108;23443;-65
2021/03/10 06:35:37;;;;;;;15.60;5.73;;;;;;;-2.97;53.83;100436.45;126233;1107;23116;-64
2021/03/10 06:38:18;;;;;;;13.03;5.37;;;;;;;-2.91;53.97;100436.72;128280;1107;22943;-65
2021/03/10 06:40:54;;;;;;;14.60;6.30;;;;;;;-2.89;53.62;100439.23;128136;1107;23747;-64
2021/03/10 06:43:36;;;;;;;9.33;5.03;;;;;;;-2.84;52.78;100436.94;128260;1108;22786;-63
2021/03/10 06:46:14;;;;;;;10.60;5.20;;;;;;;-2.80;53.33;100432.16;128236;1107;22929;-55
2021/03/10 06:49:01;;;;;;;10.23;4.83;;;;;;;-2.81;53.21;100439.31;128233;1108;22839;-55
2021/03/10 06:51:31;;;;;;;14.67;7.50;;;;;;;-2.79;53.15;100433.84;128185;1107;23029;-54
2021/03/10 06:53:58;;;;;;;14.40;7.70;;;;;;;-2.76;52.86;100437.05;128260;1108;22841;-55
2021/03/10 06:56:29;;;;;;;10.70;5.40;;;;;;;-2.73;52.37;100441.22;128218;1108;24573;-55
2021/03/10 06:59:06;;;;;;;12.43;4.90;;;;;;;-2.69;51.24;100446.11;128300;1107;22934;-55
2021/03/10 07:01:41;;;;;;;14.40;5.13;;;;;;;-2.65;50.96;100439.50;128141;1107;22916;-55
2021/03/10 07:04:11;;;;;;;11.03;4.70;;;;;;;-2.62;51.37;100441.03;128378;1107;22947;-54
2021/03/10 07:06:39;;;;;;;7.23;3.23;;;;;;;-2.59;51.19;100446.04;128284;1107;23022;-56
2021/03/10 07:09:13;;;;;;;11.65;5.25;;;;;;;-2.57;50.71;100441.40;128261;1108;23655;-53
2021/03/10 07:11:45;;;;;;;9.77;5.23;;;;;;;-2.54;50.23;100441.09;128279;1108;23475;-53
2021/03/10 07:14:13;;;;;;;11.60;6.10;;;;;;;-2.48;50.93;100445.00;128289;1108;22917;-53
2021/03/10 07:16:40;;;;;;;15.20;6.37;;;;;;;-2.43;51.30;100437.36;128195;1107;22864;-60
2021/03/10 07:19:11;;;;;;;13.50;6.07;;;;;;;-2.39;50.66;100431.58;128332;1108;22871;-61
2021/03/10 07:22:18;;;;;;;10.90;6.27;;;;;;;-2.34;50.49;100431.97;128337;1108;22897;-62
2021/03/10 07:24:57;;;;;;;15.83;6.40;;;;;;;-2.26;50.85;100431.19;128361;1108;22848;-65
2021/03/10 07:27:25;;;;;;;12.17;5.97;;;;;;;-2.19;49.99;100429.60;128269;1108;24129;-63
2021/03/10 07:29:59;;;;;;;16.47;6.53;;;;;;;-2.15;49.45;100431.78;128295;1107;22852;-66
2021/03/10 07:32:27;;;;;;;12.67;6.30;;;;;;;-2.16;48.85;100431.94;128177;1108;22810;-64
2021/03/10 07:35:06;;;;;;;8.70;4.63;;;;;;;-2.15;48.58;100436.28;128323;1108;23147;-63
2021/03/10 07:37:34;;;;;;;7.90;3.83;;;;;;;-2.16;48.27;100431.94;128239;1108;22808;-61
2021/03/10 07:40:28;;;;;;;9.43;4.70;;;;;;;-2.14;47.73;100435.30;128306;1107;23474;-60
2021/03/10 07:42:56;;;;;;;12.60;5.90;;;;;;;-2.15;47.90;100433.62;128229;1108;22854;-59
2021/03/10 07:45:29;;;;;;;10.47;5.47;;;;;;;-2.15;48.82;100430.95;128307;1107;22966;-59
2021/03/10 07:47:57;;;;;;;9.60;4.57;;;;;;;-2.10;48.43;100425.16;128242;1108;22827;-60
2021/03/10 07:50:46;;;;;;;12.77;6.17;;;;;;;-2.06;49.05;100432.72;128357;1108;22850;-61
2021/03/10 07:53:13;;;;;;;9.23;4.90;;;;;;;-1.98;49.29;100431.92;128237;1107;22936;-60
2021/03/10 07:55:42;;;;;;;10.97;4.90;;;;;;;-1.92;49.46;100428.64;128383;1107;22900;-60
2021/03/10 07:58:10;;;;;;;11.07;4.40;;;;;;;-1.87;49.12;100427.16;128251;1107;22851;-60
2021/03/10 08:00:38;;;;;;;12.37;4.77;;;;;;;-1.79;48.84;100423.73;128333;1108;23905;-60
2021/03/10 08:03:06;;;;;;;9.93;5.53;;;;;;;-1.74;49.11;100421.44;128355;1109;22971;-60
2021/03/10 08:05:42;;;;;;;9.20;5.03;;;;;;;-1.69;48.91;100420.95;128188;1107;24265;-61
2021/03/10 08:08:14;;;;;;;12.63;5.17;;;;;;;-1.64;49.01;100424.84;128361;1107;22945;-61
2021/03/10 08:10:49;;;;;;;13.07;4.97;;;;;;;-1.56;48.58;100426.70;128220;1108;22868;-61
2021/03/10 08:13:21;;;;;;;11.43;4.53;;;;;;;-1.50;48.39;100421.58;128332;1109;22992;-60
2021/03/10 08:15:49;;;;;;;10.53;3.43;;;;;;;-1.44;48.43;100428.95;128257;1108;22859;-61
2021/03/10 08:18:19;;;;;;;10.67;5.30;;;;;;;-1.38;47.67;100419.47;128353;1108;22918;-61
2021/03/10 08:20:48;;;;;;;14.07;6.13;;;;;;;-1.33;47.75;100427.02;128180;1108;22934;-61
2021/03/10 08:23:16;;;;;;;9.73;3.80;;;;;;;-1.24;47.94;100423.37;128335;1107;23373;-61
2021/03/10 08:25:50;;;;;;;5.83;3.13;;;;;;;-1.16;48.00;100426.95;128217;1108;23489;-61
2021/03/10 08:28:17;;;;;;;9.40;3.80;;;;;;;-1.08;47.48;100424.30;128332;1107;23493;-61
2021/03/10 08:30:46;;;;;;;7.93;4.67;;;;;;;-1.03;46.89;100423.82;128219;1106;22875;-60
2021/03/10 08:33:13;;;;;;;8.83;3.80;;;;;;;-1.05;46.78;100420.46;128262;1108;23035;-60
2021/03/10 08:35:48;;;;;;;9.33;4.30;;;;;;;-1.08;46.56;100418.94;128307;1106;22872;-63
2021/03/10 08:38:15;;;;;;;6.47;3.50;;;;;;;-1.08;46.04;100421.62;128312;1107;23865;-60
2021/03/10 08:40:43;;;;;;;5.83;3.40;;;;;;;-1.08;45.59;100424.30;128190;1107;22959;-60
2021/03/10 08:43:20;;;;;;;8.03;3.50;;;;;;;-1.07;45.78;100417.95;128301;1108;22884;-60
2021/03/10 08:45:47;;;;;;;8.73;5.08;;;;;;;-1.08;45.69;100415.43;128188;1106;23357;-60
2021/03/10 08:48:15;;;;;;;6.43;3.13;;;;;;;-1.07;45.25;100419.78;128323;1108;22850;-60
2021/03/10 08:50:46;;;;;;;8.30;4.50;;;;;;;-1.12;45.11;100408.72;128221;1107;22817;-60
2021/03/10 08:53:14;;;;;;;14.53;6.27;;;;;;;-1.13;46.51;100417.73;128346;1107;22782;-60
2021/03/10 08:55:46;;;;;;;9.60;4.23;;;;;;;-1.10;46.26;100414.75;128177;1107;23827;-62
2021/03/10 08:58:14;;;;;;;7.43;3.73;;;;;;;-1.13;45.91;100405.20;128299;1108;23838;-63
2021/03/10 09:00:43;;;;;;;9.20;4.20;;;;;;;-0.98;45.90;100408.11;128204;1108;22929;-62
2021/03/10 09:03:16;;;;;;;7.90;3.53;;;;;;;-0.94;45.58;100406.79;128231;1107;22813;-62
2021/03/10 09:05:45;;;;;;;10.37;4.00;;;;;;;-0.88;46.03;100406.16;128312;1107;22893;-62
2021/03/10 09:08:14;;;;;;;6.47;3.83;;;;;;;-0.81;46.28;100406.33;128334;1107;23604;-62
2021/03/10 09:10:50;;;;;;;6.40;3.80;;;;;;;-0.73;45.93;100404.52;128250;1108;22876;-61
2021/03/10 09:13:40;;;;;;;9.20;3.77;;;;;;;-0.66;45.25;100399.34;128313;1107;22850;-61
2021/03/10 09:16:09;;;;;;;7.10;3.93;;;;;;;-0.62;45.95;100392.66;128335;1108;23569;-61
2021/03/10 09:18:40;;;;;;;8.10;4.23;;;;;;;-0.56;45.42;100396.50;128356;1108;22819;-61
2021/03/10 09:21:07;;;;;;;8.57;4.93;;;;;;;-0.50;45.65;100399.37;128338;1109;23678;-61
2021/03/10 09:23:39;;;;;;;7.73;5.03;;;;;;;-0.49;45.29;100395.69;128170;1108;22814;-62
2021/03/10 09:26:08;;;;;;;7.00;4.03;;;;;;;-0.49;44.36;100398.37;128347;1108;22885;-61
2021/03/10 09:28:40;;;;;;;4.90;3.37;;;;;;;-0.50;43.86;100395.85;128293;1108;22855;-61
2021/03/10 09:31:23;;;;;;;10.13;3.97;;;;;;;-0.63;44.49;100388.31;128311;1107;22870;-61
2021/03/10 09:34:05;;;;;;;7.70;4.27;;;;;;;-0.71;44.00;100396.30;128224;1108;23039;-61
2021/03/10 09:36:38;;;;;;;9.90;4.00;;;;;;;-0.77;43.50;100392.47;128390;1106;22812;-61
2021/03/10 09:39:08;;;;;;;8.87;5.33;;;;;;;-0.81;44.14;100392.95;128155;1108;22832;-62
2021/03/10 09:41:48;;;;;;;7.63;4.40;;;;;;;-0.85;45.05;100397.78;128337;1109;22851;-60
2021/03/10 09:44:22;;;;;;;8.70;4.57;;;;;;;-0.78;45.28;100400.65;128244;1108;22863;-60
2021/03/10 09:46:49;;;;;;;9.83;4.60;;;;;;;-0.70;45.93;100397.98;128318;1107;23374;-61
2021/03/10 09:49:19;;;;;;;10.07;4.67;;;;;;;-0.64;46.06;100396.50;128181;1108;22980;-61
2021/03/10 09:51:49;;;;;;;9.67;5.73;;;;;;;-0.57;45.91;100394.83;128356;1108;22856;-61
2021/03/10 09:54:23;;;;;;;13.93;7.13;;;;;;;-0.50;45.56;100401.20;128171;1109;22908;-60
2021/03/10 09:56:58;;;;;;;16.60;8.00;;;;;;;-0.47;45.02;100395.53;128351;1106;22831;-60
2021/03/10 09:59:43;;;;;;;12.83;6.93;;;;;;;-0.47;45.64;100396.37;128217;1107;22871;-60
2021/03/10 10:02:17;;;;;;;12.50;5.03;;;;;;;-0.43;45.47;100396.84;128326;1107;23026;-60
2021/03/10 10:04:49;;;;;;;5.60;3.90;;;;;;;-0.39;45.19;100393.69;128247;1107;22838;-60
2021/03/10 10:07:17;;;;;;;8.77;4.10;;;;;;;-0.33;44.73;100397.55;128352;1108;23391;-60
2021/03/10 10:09:52;;;;;;;10.80;4.90;;;;;;;-0.28;45.40;100397.87;128143;1108;23600;-60
2021/03/10 10:12:45;;;;;;;12.40;5.67;;;;;;;-0.27;44.92;100398.70;128285;1108;23932;-60
2021/03/10 10:15:16;;;;;;;14.27;5.07;;;;;;;-0.25;44.08;100388.67;128184;1108;22885;-60
2021/03/10 10:17:45;;;;;;;7.77;4.00;;;;;;;-0.24;44.99;100391.19;128290;1108;22940;-60
2021/03/10 10:20:14;;;;;;;6.43;4.20;;;;;;;-0.24;44.64;100385.83;128217;1106;23798;-60
2021/03/10 10:22:42;;;;;;;8.03;4.97;;;;;;;-0.26;45.35;100382.48;128262;1108;22902;-60
2021/03/10 10:25:12;;;;;;;7.53;4.07;;;;;;;-0.24;45.02;100376.95;128109;1107;23780;-61
2021/03/10 10:27:41;;;;;;;6.33;4.20;;;;;;;-0.20;45.69;100384.50;128389;1107;23565;-61
2021/03/10 10:32:34;;;;;;;5.83;4.10;;;;;;;-0.16;44.32;100366.27;124457;1112;26823;-62
2021/03/10 10:35:03;;;;;;;9.67;4.10;;;;;;;-0.17;44.12;100369.94;128175;1111;22857;-63
2021/03/10 10:37:33;;;;;;;6.00;3.83;;;;;;;-0.17;45.37;100364.59;128304;1112;22929;-63
2021/03/10 10:40:06;;;;;;;11.13;5.93;;;;;;;-0.13;45.45;100360.55;128174;1111;23091;-63
2021/03/10 10:42:35;;;;;;;10.60;4.83;;;;;;;-0.08;44.86;100371.59;128253;1111;23053;-63
2021/03/10 10:45:07;;;;;;;6.40;4.27;;;;;;;-0.04;45.18;100362.23;128083;1112;22963;-63
2021/03/10 10:47:35;;;;;;;8.73;3.67;;;;;;;0.02;45.50;100364.22;128296;1111;22821;-63
2021/03/10 10:50:11;;;;;;;8.63;4.17;;;;;;;0.06;45.18;100362.87;128203;1111;22914;-61
2021/03/10 10:52:40;;;;;;;5.90;3.63;;;;;;;0.12;44.22;100358.70;128302;1111;23024;-61
2021/03/10 10:55:09;;;;;;;9.23;3.93;;;;;;;0.16;45.03;100357.33;127832;1114;22991;-61
2021/03/10 10:57:37;;;;;;;10.20;4.07;;;;;;;0.19;44.81;100356.99;127975;1115;23537;-61
2021/03/10 11:00:11;;;;;;;7.43;3.87;;;;;;;0.21;44.15;100355.82;127959;1113;23781;-63
2021/03/10 11:02:38;;;;;;;10.33;4.40;;;;;;;0.24;44.49;100350.13;127897;1114;22951;-63
2021/03/10 11:05:12;;;;;;;5.97;3.67;;;;;;;0.26;43.07;100344.59;128001;1114;23089;-62
2021/03/10 11:07:41;;;;;;;8.23;4.43;;;;;;;0.22;43.53;100338.73;127795;1114;22985;-63
2021/03/10 11:10:08;;;;;;;7.80;4.13;;;;;;;0.19;44.27;100346.27;127927;1113;22888;-63
2021/03/10 11:12:40;;;;;;;19.93;7.60;;;;;;;0.21;43.96;100347.78;127875;1113;23087;-63
2021/03/10 11:15:08;;;;;;;9.20;4.43;;;;;;;0.25;43.58;100340.24;127882;1114;22931;-63
2021/03/10 11:17:43;;;;;;;8.53;4.33;;;;;;;0.30;43.19;100338.70;127883;1114;23496;-63
2021/03/10 11:20:13;;;;;;;18.37;8.77;;;;;;;0.32;43.36;100333.17;128003;1114;24202;-63
2021/03/10 11:22:41;;;;;;;11.47;6.40;;;;;;;0.34;43.96;100336.52;127883;1113;23807;-65
2021/03/10 11:25:10;;;;;;;7.30;4.53;;;;;;;0.33;43.86;100340.20;126310;1112;23044;-67
2021/03/10 11:27:39;;;;;;;7.43;4.60;;;;;;;0.28;43.93;100332.70;128194;1112;22855;-62